createdAt,value
2019-02-20T00:00:02.904Z,22.23
2019-02-20T00:02:32.252Z,22.10
2019-02-20T00:05:01.588Z,20.50
2019-02-20T00:07:30.956Z,20.63
2019-02-20T00:10:00.380Z,20.23
2019-02-20T00:12:30.276Z,18.83
2019-02-20T00:14:59.569Z,20.50
2019-02-20T00:17:28.926Z,20.50
2019-02-20T00:19:58.242Z,19.80
2019-02-20T00:22:27.532Z,19.33
2019-02-20T00:24:56.885Z,20.20
2019-02-20T00:27:26.204Z,20.20
2019-02-20T00:29:55.535Z,17.30
2019-02-20T00:32:24.820Z,18.00
2019-02-20T00:34:54.228Z,18.57
2019-02-20T00:37:23.524Z,19.77
2019-02-20T00:39:52.803Z,16.93
2019-02-20T00:42:22.195Z,20.13
2019-02-20T00:44:59.570Z,21.40
2019-02-20T00:47:51.368Z,22.10
2019-02-20T00:50:21.900Z,19.83
2019-02-20T00:52:59.385Z,18.50
2019-02-20T00:55:28.670Z,21.40
2019-02-20T00:57:57.985Z,18.47
2019-02-20T01:00:27.308Z,19.67
2019-02-20T01:02:56.628Z,21.70
2019-02-20T01:05:25.930Z,21.43
2019-02-20T01:07:55.336Z,19.33
2019-02-20T01:10:24.783Z,21.30
2019-02-20T01:12:54.140Z,19.83
2019-02-20T01:15:23.493Z,23.93
2019-02-20T01:17:52.812Z,21.67
2019-02-20T01:20:25.589Z,20.63
2019-02-20T01:22:59.847Z,21.63
2019-02-20T01:25:25.913Z,20.73
2019-02-20T01:27:55.243Z,21.97
2019-02-20T01:30:24.526Z,22.47
2019-02-20T01:32:53.840Z,22.10
2019-02-20T01:35:23.123Z,21.50
2019-02-20T01:37:52.450Z,19.67
2019-02-20T01:40:21.728Z,20.83
2019-02-20T01:42:51.024Z,20.23
2019-02-20T01:45:20.356Z,19.43
2019-02-20T01:47:49.791Z,20.53
2019-02-20T01:50:19.144Z,20.00
2019-02-20T01:52:48.416Z,20.93
2019-02-20T01:55:17.700Z,22.03
2019-02-20T01:57:47.101Z,18.87
2019-02-20T02:00:16.516Z,20.53
2019-02-20T02:02:45.900Z,20.80
2019-02-20T02:05:16.044Z,18.80
2019-02-20T02:07:46.048Z,22.23
2019-02-20T02:10:15.432Z,19.40
2019-02-20T02:12:44.766Z,19.53
2019-02-20T02:15:20.593Z,19.33
2019-02-20T02:17:45.484Z,20.77
2019-02-20T02:20:14.781Z,20.17
2019-02-20T02:22:44.159Z,20.83
2019-02-20T02:25:13.441Z,17.93
2019-02-20T02:27:42.724Z,18.30
2019-02-20T02:30:12.934Z,18.37
2019-02-20T02:32:42.240Z,16.27
2019-02-20T02:35:11.569Z,15.87
2019-02-20T02:37:40.972Z,16.03
2019-02-20T02:40:10.344Z,15.00
2019-02-20T02:42:39.728Z,14.13
2019-02-20T02:45:09.090Z,15.87
2019-02-20T02:47:38.449Z,13.97
2019-02-20T02:50:08.220Z,13.63
2019-02-20T02:52:37.510Z,15.73
2019-02-20T02:55:06.825Z,15.13
2019-02-20T02:57:36.103Z,14.60
2019-02-20T03:00:06.933Z,14.63
2019-02-20T03:02:36.230Z,15.47
2019-02-20T03:05:06.384Z,17.20
2019-02-20T03:07:35.716Z,14.60
2019-02-20T03:10:05.612Z,14.57
2019-02-20T03:12:34.893Z,14.37
2019-02-20T03:15:04.976Z,18.10
2019-02-20T03:17:34.265Z,14.87
2019-02-20T03:20:03.636Z,15.43
2019-02-20T03:22:32.933Z,13.80
2019-02-20T03:25:02.253Z,14.87
2019-02-20T03:27:31.626Z,14.00
2019-02-20T03:30:00.929Z,14.17
2019-02-20T03:32:30.259Z,13.60
2019-02-20T03:34:59.618Z,13.47
2019-02-20T03:37:28.939Z,14.17
2019-02-20T03:39:58.351Z,15.13
2019-02-20T03:42:27.630Z,15.03
2019-02-20T03:44:56.913Z,15.03
2019-02-20T03:47:26.249Z,16.53
2019-02-20T03:49:55.580Z,20.73
2019-02-20T03:52:24.878Z,16.90
2019-02-20T03:54:54.300Z,19.53
2019-02-20T03:57:24.288Z,15.13
2019-02-20T03:59:53.741Z,16.27
2019-02-20T04:02:23.020Z,16.03
2019-02-20T04:04:52.383Z,17.37
2019-02-20T04:07:21.716Z,20.03
2019-02-20T04:09:52.021Z,26.17
2019-02-20T04:12:21.743Z,29.30
2019-02-20T04:14:51.014Z,29.67
2019-02-20T04:17:20.333Z,23.37
2019-02-20T04:19:49.667Z,23.57
2019-02-20T04:22:19.000Z,25.97
2019-02-20T04:24:48.325Z,27.30
2019-02-20T04:27:18.451Z,23.97
2019-02-20T04:29:47.797Z,22.97
2019-02-20T04:32:17.092Z,23.73
2019-02-20T04:34:46.373Z,24.77
2019-02-20T04:37:15.710Z,24.67
2019-02-20T04:39:45.200Z,27.83
2019-02-20T04:42:14.492Z,26.60
2019-02-20T04:44:43.892Z,32.27
2019-02-20T04:47:13.197Z,29.67
2019-02-20T04:49:42.484Z,30.17
2019-02-20T04:52:11.819Z,33.07
2019-02-20T04:54:41.098Z,33.97
2019-02-20T04:57:10.431Z,29.83
2019-02-20T04:59:39.717Z,33.47
2019-02-20T05:02:09.049Z,29.13
2019-02-20T05:04:38.384Z,33.27
2019-02-20T05:07:07.703Z,32.00
2019-02-20T05:09:39.484Z,35.53
2019-02-20T05:12:08.047Z,38.10
2019-02-20T05:14:37.369Z,38.73
2019-02-20T05:17:06.698Z,33.67
2019-02-20T05:19:36.141Z,36.63
2019-02-20T05:22:05.416Z,39.13
2019-02-20T05:24:34.717Z,33.60
2019-02-20T05:27:04.082Z,35.13
2019-02-20T05:29:33.366Z,38.53
2019-02-20T05:32:02.692Z,35.70
2019-02-20T05:34:32.017Z,34.73
2019-02-20T05:37:01.402Z,37.40
2019-02-20T05:39:30.692Z,34.60
2019-02-20T05:41:59.970Z,36.93
2019-02-20T05:44:29.504Z,35.13
2019-02-20T05:46:58.804Z,34.53
2019-02-20T05:49:28.120Z,35.50
2019-02-20T05:51:57.401Z,37.80
2019-02-20T05:54:34.109Z,40.10
2019-02-20T05:56:57.787Z,42.83
2019-02-20T05:59:27.096Z,40.67
2019-02-20T06:01:56.464Z,36.87
2019-02-20T06:04:25.731Z,36.80
2019-02-20T06:06:55.012Z,38.33
2019-02-20T06:09:24.822Z,35.27
2019-02-20T06:11:54.714Z,36.67
2019-02-20T06:14:24.037Z,42.43
2019-02-20T06:16:53.334Z,40.20
2019-02-20T06:19:22.703Z,40.50
2019-02-20T06:21:52.008Z,40.37
2019-02-20T06:24:21.286Z,42.07
2019-02-20T06:26:50.681Z,43.27
2019-02-20T06:29:19.964Z,41.23
2019-02-20T06:31:49.299Z,40.07
2019-02-20T06:34:18.768Z,41.83
2019-02-20T06:36:48.118Z,41.20
2019-02-20T06:39:17.415Z,40.20
2019-02-20T06:41:46.704Z,40.90
2019-02-20T06:44:16.052Z,39.80
2019-02-20T06:46:45.369Z,38.50
2019-02-20T06:49:14.696Z,39.67
2019-02-20T06:51:44.025Z,37.80
2019-02-20T06:54:13.301Z,42.07
2019-02-20T06:56:42.613Z,44.83
2019-02-20T06:59:13.015Z,59.83
2019-02-20T07:01:43.437Z,74.87
2019-02-20T07:04:13.829Z,53.07
2019-02-20T07:07:10.440Z,43.10
2019-02-20T07:10:32.184Z,57.87
2019-02-20T07:13:39.261Z,67.77
2019-02-20T07:16:35.351Z,68.53
2019-02-20T07:19:17.004Z,54.00
2019-02-20T07:22:09.353Z,51.77
2019-02-20T07:25:34.389Z,50.37
2019-02-20T07:28:57.096Z,49.27
2019-02-20T07:31:26.391Z,48.43
2019-02-20T07:33:55.785Z,46.37
2019-02-20T07:36:25.204Z,51.33
2019-02-20T07:38:54.546Z,48.23
2019-02-20T07:41:24.000Z,49.70
2019-02-20T07:43:53.346Z,52.33
2019-02-20T07:46:23.739Z,50.03
2019-02-20T07:48:53.207Z,48.90
2019-02-20T07:51:22.612Z,47.60
2019-02-20T07:53:53.008Z,48.67
2019-02-20T07:56:24.050Z,48.77
2019-02-20T07:58:53.448Z,47.23
2019-02-20T08:01:22.762Z,46.07
2019-02-20T08:03:52.184Z,43.70
2019-02-20T08:06:21.530Z,45.50
2019-02-20T08:08:50.958Z,43.77
2019-02-20T08:11:20.321Z,44.83
2019-02-20T08:13:49.692Z,50.53
2019-02-20T08:16:19.048Z,42.13
2019-02-20T08:18:48.496Z,45.00
2019-02-20T08:21:17.857Z,43.60
2019-02-20T08:23:47.184Z,43.00
2019-02-20T08:26:16.550Z,44.07
2019-02-20T08:28:45.988Z,39.80
2019-02-20T08:31:15.265Z,38.90
2019-02-20T08:33:44.579Z,38.80
2019-02-20T08:36:13.990Z,38.43
2019-02-20T08:38:43.255Z,37.27
2019-02-20T08:41:12.597Z,38.47
2019-02-20T08:43:41.993Z,37.50
2019-02-20T08:46:11.368Z,34.53
2019-02-20T08:48:40.812Z,36.90
2019-02-20T08:51:10.185Z,40.53
2019-02-20T08:53:39.608Z,39.23
2019-02-20T08:56:08.991Z,43.10
2019-02-20T08:58:38.353Z,42.77
2019-02-20T09:01:07.704Z,37.90
2019-02-20T09:03:37.108Z,51.93
2019-02-20T09:06:06.475Z,36.93
2019-02-20T09:08:35.822Z,36.73
2019-02-20T09:11:05.274Z,35.93
2019-02-20T09:13:34.595Z,32.50
2019-02-20T09:16:04.012Z,33.70
2019-02-20T09:18:33.420Z,33.30
2019-02-20T09:21:02.717Z,37.77
2019-02-20T09:23:32.079Z,33.33
2019-02-20T09:26:01.433Z,34.33
2019-02-20T09:28:30.816Z,31.07
2019-02-20T09:31:00.128Z,32.57
2019-02-20T09:33:29.429Z,29.80
2019-02-20T09:35:58.835Z,32.43
2019-02-20T09:38:28.188Z,30.87
2019-02-20T09:40:58.547Z,29.87
2019-02-20T09:43:27.916Z,29.53
2019-02-20T09:45:58.292Z,27.70
2019-02-20T09:48:27.692Z,29.27
2019-02-20T09:50:57.096Z,30.23
2019-02-20T09:53:26.446Z,28.63
2019-02-20T09:55:55.759Z,28.07
2019-02-20T09:58:26.212Z,26.87
2019-02-20T10:00:55.584Z,28.70
2019-02-20T10:03:24.912Z,27.30
2019-02-20T10:05:54.297Z,26.33
2019-02-20T10:08:23.628Z,25.07
2019-02-20T10:10:52.916Z,26.90
2019-02-20T10:13:22.260Z,28.67
2019-02-20T10:15:51.557Z,27.33
2019-02-20T10:18:20.884Z,25.63
2019-02-20T10:20:50.165Z,25.60
2019-02-20T10:23:19.570Z,25.53
2019-02-20T10:25:49.972Z,27.23
2019-02-20T10:28:19.373Z,28.93
2019-02-20T10:30:48.732Z,26.57
2019-02-20T10:33:18.321Z,26.53
2019-02-20T10:35:48.657Z,27.83
2019-02-20T10:38:18.004Z,25.70
2019-02-20T10:40:47.361Z,21.87
2019-02-20T10:43:16.732Z,21.93
2019-02-20T10:45:48.064Z,21.60
2019-02-20T10:48:17.482Z,23.40
2019-02-20T10:50:46.845Z,24.03
2019-02-20T10:53:16.264Z,20.53
2019-02-20T10:55:45.681Z,22.53
2019-02-20T10:58:15.088Z,22.10
2019-02-20T11:00:44.485Z,21.20
2019-02-20T11:03:13.798Z,21.13
2019-02-20T11:05:43.380Z,20.80
2019-02-20T11:08:12.752Z,23.10
2019-02-20T11:10:42.184Z,24.10
2019-02-20T11:13:11.540Z,19.80
2019-02-20T11:15:40.884Z,24.03
2019-02-20T11:18:10.296Z,20.40
2019-02-20T11:20:48.109Z,19.53
2019-02-20T11:23:10.864Z,18.40
2019-02-20T11:25:40.196Z,21.27
2019-02-20T11:28:10.549Z,18.23
2019-02-20T11:30:40.478Z,23.43
2019-02-20T11:33:09.840Z,17.67
2019-02-20T11:35:39.185Z,19.47
2019-02-20T11:38:08.541Z,17.93
2019-02-20T11:40:37.904Z,17.47
2019-02-20T11:43:07.264Z,19.07
2019-02-20T11:45:36.700Z,16.80
2019-02-20T11:48:06.190Z,19.63
2019-02-20T11:50:36.476Z,18.37
2019-02-20T11:53:05.982Z,18.50
2019-02-20T11:55:35.279Z,18.90
2019-02-20T11:58:04.600Z,15.63
2019-02-20T12:00:33.944Z,13.33
2019-02-20T12:03:03.237Z,14.43
2019-02-20T12:05:32.648Z,16.07
2019-02-20T12:08:02.070Z,17.73
2019-02-20T12:10:31.395Z,18.40
2019-02-20T12:13:01.033Z,16.90
2019-02-20T12:15:31.478Z,16.17
2019-02-20T12:18:01.015Z,15.13
2019-02-20T12:20:30.675Z,12.60
2019-02-20T12:23:00.097Z,14.13
2019-02-20T12:25:29.509Z,14.70
2019-02-20T12:27:58.888Z,12.47
2019-02-20T12:30:28.265Z,11.03
2019-02-20T12:32:57.595Z,12.27
2019-02-20T12:35:26.937Z,11.33
2019-02-20T12:37:56.236Z,11.70
2019-02-20T12:40:25.596Z,11.77
2019-02-20T12:42:55.016Z,11.07
2019-02-20T12:45:24.398Z,11.13
2019-02-20T12:47:53.863Z,11.53
2019-02-20T12:50:24.787Z,11.53
2019-02-20T12:52:54.784Z,13.93
2019-02-20T12:55:24.116Z,13.27
2019-02-20T12:57:53.422Z,12.20
2019-02-20T13:00:24.172Z,12.87
2019-02-20T13:02:53.511Z,10.57
2019-02-20T13:05:23.010Z,10.53
2019-02-20T13:07:52.336Z,9.50
2019-02-20T13:10:21.620Z,8.80
2019-02-20T13:12:50.910Z,13.00
2019-02-20T13:15:20.248Z,14.13
2019-02-20T13:17:49.542Z,15.03
2019-02-20T13:20:18.944Z,17.03
2019-02-20T13:22:48.243Z,15.40
2019-02-20T13:25:17.700Z,14.47
2019-02-20T13:27:47.081Z,14.47
2019-02-20T13:30:16.468Z,15.63
2019-02-20T13:32:45.761Z,14.53
2019-02-20T13:35:15.075Z,16.17
2019-02-20T13:37:44.478Z,14.73
2019-02-20T13:40:14.172Z,13.80
2019-02-20T13:42:43.498Z,13.53
2019-02-20T13:45:12.844Z,10.80
2019-02-20T13:47:42.235Z,11.90
2019-02-20T13:50:13.210Z,10.50
2019-02-20T13:52:51.788Z,12.40
2019-02-20T13:55:14.456Z,13.10
2019-02-20T13:57:43.932Z,13.77
2019-02-20T14:00:14.283Z,16.20
2019-02-20T14:02:43.675Z,14.53
2019-02-20T14:05:13.069Z,13.60
2019-02-20T14:07:43.236Z,15.33
2019-02-20T14:10:13.793Z,15.00
2019-02-20T14:12:43.193Z,15.93
2019-02-20T14:15:13.012Z,15.90
2019-02-20T14:17:42.391Z,15.50
2019-02-20T14:20:12.232Z,17.23
2019-02-20T14:22:42.536Z,15.80
2019-02-20T14:25:12.386Z,14.30
2019-02-20T14:27:41.884Z,14.77
2019-02-20T14:30:11.756Z,14.40
2019-02-20T14:32:41.156Z,15.70
2019-02-20T14:35:11.420Z,14.13
2019-02-20T14:37:41.684Z,13.70
2019-02-20T14:40:11.102Z,14.60
2019-02-20T14:42:40.510Z,14.57
2019-02-20T14:45:10.868Z,19.17
2019-02-20T14:47:40.317Z,14.43
2019-02-20T14:50:10.169Z,15.80
2019-02-20T14:52:39.766Z,14.57
2019-02-20T14:55:09.185Z,19.90
2019-02-20T14:57:38.626Z,15.93
2019-02-20T15:00:09.128Z,18.20
2019-02-20T15:02:38.600Z,18.33
2019-02-20T15:05:08.414Z,19.13
2019-02-20T15:07:38.574Z,16.33
2019-02-20T15:10:08.425Z,17.03
2019-02-20T15:12:37.776Z,17.20
2019-02-20T15:15:10.481Z,17.30
2019-02-20T15:17:39.422Z,17.63
2019-02-20T15:20:08.981Z,18.50
2019-02-20T15:22:40.086Z,19.43
2019-02-20T15:25:10.068Z,18.77
2019-02-20T15:27:39.596Z,19.73
2019-02-20T15:30:12.284Z,20.33
2019-02-20T15:32:42.083Z,17.83
2019-02-20T15:35:12.029Z,19.97
2019-02-20T15:37:41.541Z,18.67
2019-02-20T15:40:10.965Z,18.33
2019-02-20T15:42:40.447Z,21.00
2019-02-20T15:45:10.424Z,19.37
2019-02-20T15:47:39.829Z,20.37
2019-02-20T15:50:10.067Z,20.80
2019-02-20T15:52:39.816Z,20.27
2019-02-20T15:55:11.410Z,20.50
2019-02-20T15:57:40.867Z,21.73
2019-02-20T16:00:12.058Z,18.47
2019-02-20T16:02:41.437Z,23.27
2019-02-20T16:05:10.962Z,21.77
2019-02-20T16:07:40.425Z,22.23
2019-02-20T16:10:10.514Z,22.17
2019-02-20T16:12:39.936Z,20.00
2019-02-20T16:15:09.922Z,21.50
2019-02-20T16:17:40.376Z,21.13
2019-02-20T16:20:11.368Z,21.70
2019-02-20T16:22:40.822Z,21.60
2019-02-20T16:25:12.704Z,20.57
2019-02-20T16:27:47.038Z,21.27
2019-02-20T16:30:14.817Z,23.07
2019-02-20T16:32:44.288Z,25.33
2019-02-20T16:35:14.600Z,28.20
2019-02-20T16:37:44.100Z,42.07
2019-02-20T16:40:14.138Z,100.60
2019-02-20T16:42:43.520Z,118.07
2019-02-20T16:45:22.034Z,35.67
2019-02-20T16:47:51.751Z,24.73
2019-02-20T16:50:21.195Z,26.10
2019-02-20T16:52:50.706Z,25.87
2019-02-20T16:55:22.434Z,25.23
2019-02-20T16:57:56.579Z,23.40
2019-02-20T17:00:23.012Z,26.30
2019-02-20T17:02:53.228Z,26.40
2019-02-20T17:05:22.689Z,26.83
2019-02-20T17:07:52.045Z,29.87
2019-02-20T17:10:21.532Z,27.57
2019-02-20T17:12:53.416Z,29.23
2019-02-20T17:15:22.895Z,28.70
2019-02-20T17:17:53.181Z,28.93
2019-02-20T17:20:23.516Z,28.50
2019-02-20T17:22:52.893Z,28.80
2019-02-20T17:25:22.631Z,26.80
2019-02-20T17:27:52.060Z,28.73
2019-02-20T17:30:21.476Z,31.67
2019-02-20T17:32:51.543Z,31.33
2019-02-20T17:35:20.995Z,32.80
2019-02-20T17:37:50.459Z,30.50
2019-02-20T17:40:19.820Z,29.83
2019-02-20T17:42:49.264Z,27.90
2019-02-20T17:45:18.899Z,29.90
2019-02-20T17:47:49.001Z,28.63
2019-02-20T17:50:18.511Z,32.87
2019-02-20T17:52:47.924Z,34.53
2019-02-20T17:55:17.297Z,31.67
2019-02-20T17:57:46.777Z,36.93
2019-02-20T18:00:18.653Z,31.73
2019-02-20T18:02:48.065Z,35.23
2019-02-20T18:05:17.498Z,33.37
2019-02-20T18:07:51.002Z,29.13
2019-02-20T18:10:18.136Z,34.60
2019-02-20T18:12:47.562Z,31.00
2019-02-20T18:15:17.197Z,32.10
2019-02-20T18:17:46.636Z,32.17
2019-02-20T18:20:16.002Z,31.17
2019-02-20T18:22:45.940Z,34.80
2019-02-20T18:25:15.296Z,34.97
2019-02-20T18:27:44.810Z,37.67
2019-02-20T18:30:14.866Z,35.97
2019-02-20T18:32:44.249Z,34.43
2019-02-20T18:35:13.759Z,34.57
2019-02-20T18:37:43.240Z,33.67
2019-02-20T18:40:13.497Z,33.87
2019-02-20T18:42:43.946Z,31.60
2019-02-20T18:45:14.223Z,34.10
2019-02-20T18:47:44.593Z,32.63
2019-02-20T18:50:14.332Z,33.57
2019-02-20T18:52:43.756Z,32.03
2019-02-20T18:55:13.568Z,33.83
2019-02-20T18:57:42.970Z,32.53
2019-02-20T19:00:15.168Z,34.27
2019-02-20T19:02:44.656Z,33.57
2019-02-20T19:05:15.162Z,34.17
2019-02-20T19:07:44.497Z,35.67
2019-02-20T19:10:17.945Z,36.73
2019-02-20T19:13:31.225Z,38.40
2019-02-20T19:16:37.617Z,37.73
2019-02-20T19:20:01.682Z,35.10
2019-02-20T19:23:20.869Z,35.87
2019-02-20T19:26:21.804Z,39.00
2019-02-20T19:29:43.206Z,37.40
2019-02-20T19:32:48.853Z,37.77
2019-02-20T19:35:47.305Z,33.83
2019-02-20T19:38:38.507Z,30.33
2019-02-20T19:41:40.953Z,33.37
2019-02-20T19:44:31.767Z,33.67
2019-02-20T19:47:50.402Z,32.90
2019-02-20T19:50:35.582Z,34.13
2019-02-20T19:53:32.900Z,34.90
2019-02-20T19:56:47.041Z,30.87
2019-02-20T19:59:51.164Z,31.23
2019-02-20T20:03:05.020Z,36.27
2019-02-20T20:06:09.431Z,33.13
2019-02-20T20:08:48.795Z,32.00
2019-02-20T20:11:44.742Z,38.37
2019-02-20T20:14:41.071Z,35.63
2019-02-20T20:18:05.347Z,47.43
2019-02-20T20:21:23.453Z,40.23
2019-02-20T20:24:28.658Z,118.27
2019-02-20T20:27:46.712Z,152.50
2019-02-20T20:31:01.835Z,177.43
2019-02-20T20:34:07.317Z,120.20
2019-02-20T20:37:06.009Z,65.27
2019-02-20T20:39:46.013Z,66.27
2019-02-20T20:42:46.811Z,62.80
2019-02-20T20:45:53.297Z,53.07
2019-02-20T20:48:54.450Z,46.53
2019-02-20T20:52:06.055Z,43.10
2019-02-20T20:55:05.180Z,37.63
2019-02-20T20:58:27.349Z,37.10
2019-02-20T21:01:48.333Z,35.97
2019-02-20T21:04:55.764Z,40.67
2019-02-20T21:07:43.879Z,83.90
2019-02-20T21:11:00.388Z,101.90
2019-02-20T21:14:02.535Z,98.80
2019-02-20T21:17:25.019Z,100.63
2019-02-20T21:20:20.327Z,82.47
2019-02-20T21:23:30.641Z,92.90
2019-02-20T21:27:02.845Z,71.93
2019-02-20T21:30:07.664Z,44.50
2019-02-20T21:32:48.207Z,34.60
2019-02-20T21:35:58.501Z,31.40
2019-02-20T21:39:09.093Z,31.83
2019-02-20T21:41:49.299Z,32.37
2019-02-20T21:44:55.525Z,31.23
2019-02-20T21:47:48.492Z,29.70
2019-02-20T21:51:26.579Z,31.13
2019-02-20T21:54:22.038Z,31.70
2019-02-20T21:57:29.524Z,26.20
2019-02-20T22:00:42.315Z,28.07
2019-02-20T22:03:48.604Z,29.50
2019-02-20T22:06:24.260Z,28.13
2019-02-20T22:10:01.224Z,29.27
2019-02-20T22:13:03.410Z,28.67
2019-02-20T22:15:47.189Z,29.53
2019-02-20T22:18:38.288Z,27.83
2019-02-20T22:21:44.106Z,28.47
2019-02-20T22:24:39.582Z,28.43
2019-02-20T22:27:36.649Z,34.50
2019-02-20T22:30:51.605Z,32.10
2019-02-20T22:33:42.968Z,30.73
2019-02-20T22:36:37.615Z,31.40
2019-02-20T22:39:18.607Z,31.77
2019-02-20T22:42:25.717Z,33.40
2019-02-20T22:45:41.573Z,32.47
2019-02-20T22:48:45.985Z,31.53
2019-02-20T22:51:25.316Z,31.43
2019-02-20T22:54:05.394Z,36.03
2019-02-20T22:57:06.342Z,30.10
2019-02-20T23:00:20.518Z,32.50
2019-02-20T23:03:43.040Z,28.17
2019-02-20T23:06:39.980Z,29.13
2019-02-20T23:09:16.681Z,30.50
2019-02-20T23:12:14.307Z,28.93
2019-02-20T23:14:53.870Z,31.83
2019-02-20T23:17:23.619Z,31.97
2019-02-20T23:19:53.435Z,28.97
2019-02-20T23:22:22.840Z,30.77
2019-02-20T23:24:52.468Z,30.60
2019-02-20T23:27:22.849Z,28.77
2019-02-20T23:29:52.198Z,30.83
2019-02-20T23:32:21.664Z,26.73
2019-02-20T23:34:51.216Z,27.30
2019-02-20T23:37:20.622Z,29.83
2019-02-20T23:39:50.033Z,30.43
2019-02-20T23:42:20.500Z,29.23
2019-02-20T23:44:49.992Z,30.07
2019-02-20T23:47:19.410Z,25.57
2019-02-20T23:49:48.806Z,25.57
2019-02-20T23:54:55.347Z,25.63
2019-02-20T23:57:25.006Z,25.60
2019-02-20T23:59:54.702Z,26.73
